sensor_id;sensor_type;location;lat;lon;timestamp;temperature;humidity
5164;DHT22;2601;50.224;10.126;2022-12-29T04:07:49;8.50;99.90
5164;DHT22;2601;50.224;10.126;2022-12-29T04:10:15;8.60;99.90
5164;DHT22;2601;50.224;10.126;2022-12-29T04:12:41;8.80;99.90
5164;DHT22;2601;50.224;10.126;2022-12-29T04:15:08;8.80;99.90
5164;DHT22;2601;50.224;10.126;2022-12-29T04:17:34;8.90;99.90
5164;DHT22;2601;50.224;10.126;2022-12-29T04:19:59;8.90;99.90
5164;DHT22;2601;50.224;10.126;2022-12-29T04:22:44;8.90;99.90
5164;DHT22;2601;50.224;10.126;2022-12-29T04:25:10;8.90;99.90
5164;DHT22;2601;50.224;10.126;2022-12-29T04:27:35;8.90;99.90
5164;DHT22;2601;50.224;10.126;2022-12-29T04:30:01;8.90;99.90
5164;DHT22;2601;50.224;10.126;2022-12-29T04:32:27;9.00;99.90
5164;DHT22;2601;50.224;10.126;2022-12-29T04:34:52;9.10;99.90
5164;DHT22;2601;50.224;10.126;2022-12-29T04:37:18;9.10;99.90
5164;DHT22;2601;50.224;10.126;2022-12-29T04:39:44;9.10;99.90
5164;DHT22;2601;50.224;10.126;2022-12-29T04:42:09;9.10;99.90
5164;DHT22;2601;50.224;10.126;2022-12-29T04:44:35;9.20;99.90
5164;DHT22;2601;50.224;10.126;2022-12-29T04:47:00;9.20;99.90
5164;DHT22;2601;50.224;10.126;2022-12-29T04:49:26;9.20;99.90
5164;DHT22;2601;50.224;10.126;2022-12-29T04:51:52;9.30;99.90
5164;DHT22;2601;50.224;10.126;2022-12-29T04:54:18;9.30;99.90
5164;DHT22;2601;50.224;10.126;2022-12-29T04:56:43;9.30;99.90
5164;DHT22;2601;50.224;10.126;2022-12-29T04:59:09;9.40;99.90
5164;DHT22;2601;50.224;10.126;2022-12-29T05:01:35;9.30;99.90
5164;DHT22;2601;50.224;10.126;2022-12-29T05:04:00;9.40;99.90
5164;DHT22;2601;50.224;10.126;2022-12-29T05:06:26;9.40;99.90
5164;DHT22;2601;50.224;10.126;2022-12-29T05:08:52;9.40;99.90
5164;DHT22;2601;50.224;10.126;2022-12-29T05:11:18;9.40;99.90
5164;DHT22;2601;50.224;10.126;2022-12-29T05:13:46;9.40;99.90
5164;DHT22;2601;50.224;10.126;2022-12-29T05:16:12;9.30;99.90
5164;DHT22;2601;50.224;10.126;2022-12-29T05:18:38;9.30;99.90
5164;DHT22;2601;50.224;10.126;2022-12-29T05:21:04;9.30;99.90
5164;DHT22;2601;50.224;10.126;2022-12-29T05:23:29;9.30;99.90
5164;DHT22;2601;50.224;10.126;2022-12-29T05:25:55;9.30;99.90
5164;DHT22;2601;50.224;10.126;2022-12-29T05:28:21;9.40;99.90
5164;DHT22;2601;50.224;10.126;2022-12-29T05:30:50;9.40;99.90
5164;DHT22;2601;50.224;10.126;2022-12-29T05:33:17;9.40;99.90
5164;DHT22;2601;50.224;10.126;2022-12-29T05:35:43;9.40;99.90
5164;DHT22;2601;50.224;10.126;2022-12-29T05:38:09;9.40;99.90
5164;DHT22;2601;50.224;10.126;2022-12-29T05:40:35;9.40;99.90
5164;DHT22;2601;50.224;10.126;2022-12-29T05:43:01;9.50;99.90
5164;DHT22;2601;50.224;10.126;2022-12-29T05:45:26;9.50;99.90
5164;DHT22;2601;50.224;10.126;2022-12-29T05:47:52;9.50;99.90
5164;DHT22;2601;50.224;10.126;2022-12-29T05:50:18;9.60;99.90
5164;DHT22;2601;50.224;10.126;2022-12-29T05:52:44;9.60;99.90
5164;DHT22;2601;50.224;10.126;2022-12-29T05:55:10;9.60;99.90
5164;DHT22;2601;50.224;10.126;2022-12-29T05:57:36;9.60;99.90
5164;DHT22;2601;50.224;10.126;2022-12-29T06:00:06;9.60;99.90
5164;DHT22;2601;50.224;10.126;2022-12-29T06:02:31;9.60;99.90
5164;DHT22;2601;50.224;10.126;2022-12-29T06:04:57;9.50;99.90
5164;DHT22;2601;50.224;10.126;2022-12-29T06:07:23;9.50;99.90
5164;DHT22;2601;50.224;10.126;2022-12-29T06:09:48;9.40;99.90
5164;DHT22;2601;50.224;10.126;2022-12-29T06:12:14;9.40;99.90
5164;DHT22;2601;50.224;10.126;2022-12-29T06:14:40;9.40;99.90
5164;DHT22;2601;50.224;10.126;2022-12-29T06:17:06;9.30;99.90
5164;DHT22;2601;50.224;10.126;2022-12-29T06:19:31;9.30;99.90
5164;DHT22;2601;50.224;10.126;2022-12-29T06:21:57;9.20;99.90
5164;DHT22;2601;50.224;10.126;2022-12-29T06:24:22;9.20;99.90
5164;DHT22;2601;50.224;10.126;2022-12-29T06:26:48;9.10;99.90
5164;DHT22;2601;50.224;10.126;2022-12-29T06:29:14;9.00;99.90
5164;DHT22;2601;50.224;10.126;2022-12-29T06:31:44;9.00;99.90
5164;DHT22;2601;50.224;10.126;2022-12-29T06:34:11;9.00;99.90
5164;DHT22;2601;50.224;10.126;2022-12-29T15:32:55;9.40;99.90
5164;DHT22;2601;50.224;10.126;2022-12-29T15:37:59;9.40;99.90
5164;DHT22;2601;50.224;10.126;2022-12-29T15:40:32;9.50;99.90
5164;DHT22;2601;50.224;10.126;2022-12-29T15:43:14;9.60;99.90
5164;DHT22;2601;50.224;10.126;2022-12-29T15:45:42;9.60;99.90
5164;DHT22;2601;50.224;10.126;2022-12-29T15:48:19;9.70;99.90
5164;DHT22;2601;50.224;10.126;2022-12-29T15:50:47;9.70;99.90
5164;DHT22;2601;50.224;10.126;2022-12-29T15:53:22;9.80;99.90
5164;DHT22;2601;50.224;10.126;2022-12-29T15:55:51;9.80;99.90
5164;DHT22;2601;50.224;10.126;2022-12-29T15:58:24;9.80;99.90
5164;DHT22;2601;50.224;10.126;2022-12-29T16:00:58;9.90;99.90
5164;DHT22;2601;50.224;10.126;2022-12-29T16:03:27;9.90;99.90
5164;DHT22;2601;50.224;10.126;2022-12-29T16:09:17;9.90;99.90
5164;DHT22;2601;50.224;10.126;2022-12-29T16:11:49;9.80;99.90
5164;DHT22;2601;50.224;10.126;2022-12-29T16:17:00;9.70;99.90
5164;DHT22;2601;50.224;10.126;2022-12-29T16:19:39;9.70;99.90
5164;DHT22;2601;50.224;10.126;2022-12-29T16:22:18;9.60;99.90
5164;DHT22;2601;50.224;10.126;2022-12-29T16:24:46;9.70;99.90
5164;DHT22;2601;50.224;10.126;2022-12-29T16:27:32;9.60;99.90
5164;DHT22;2601;50.224;10.126;2022-12-29T16:30:07;9.70;99.90
5164;DHT22;2601;50.224;10.126;2022-12-29T16:32:33;9.60;99.90
5164;DHT22;2601;50.224;10.126;2022-12-29T16:35:24;9.60;99.90
5164;DHT22;2601;50.224;10.126;2022-12-29T16:38:15;9.50;99.90
5164;DHT22;2601;50.224;10.126;2022-12-29T16:40:55;9.40;99.90
5164;DHT22;2601;50.224;10.126;2022-12-29T16:43:27;9.30;99.90
5164;DHT22;2601;50.224;10.126;2022-12-29T16:48:28;9.20;99.90
5164;DHT22;2601;50.224;10.126;2022-12-29T16:51:02;9.30;99.90
5164;DHT22;2601;50.224;10.126;2022-12-29T16:53:38;9.10;99.90
5164;DHT22;2601;50.224;10.126;2022-12-29T16:56:12;9.10;99.90
5164;DHT22;2601;50.224;10.126;2022-12-29T16:58:38;9.10;99.90
5164;DHT22;2601;50.224;10.126;2022-12-29T17:01:06;9.10;99.90
5164;DHT22;2601;50.224;10.126;2022-12-29T17:03:45;9.00;99.90
5164;DHT22;2601;50.224;10.126;2022-12-29T17:06:20;9.00;99.90
5164;DHT22;2601;50.224;10.126;2022-12-29T17:08:47;8.90;99.90
5164;DHT22;2601;50.224;10.126;2022-12-29T17:11:33;9.00;99.90
5164;DHT22;2601;50.224;10.126;2022-12-29T17:14:38;8.90;99.90
5164;DHT22;2601;50.224;10.126;2022-12-29T17:17:41;8.90;99.90
5164;DHT22;2601;50.224;10.126;2022-12-29T17:20:22;8.90;99.90
5164;DHT22;2601;50.224;10.126;2022-12-29T17:22:48;8.80;99.90
5164;DHT22;2601;50.224;10.126;2022-12-29T17:25:35;8.70;99.90
5164;DHT22;2601;50.224;10.126;2022-12-29T17:28:24;8.60;99.90
5164;DHT22;2601;50.224;10.126;2022-12-29T17:30:52;8.50;99.90
5164;DHT22;2601;50.224;10.126;2022-12-29T17:33:20;8.50;99.90
5164;DHT22;2601;50.224;10.126;2022-12-29T17:35:46;8.50;99.90
5164;DHT22;2601;50.224;10.126;2022-12-29T17:40:44;8.50;99.90
5164;DHT22;2601;50.224;10.126;2022-12-29T17:43:12;8.40;99.90
5164;DHT22;2601;50.224;10.126;2022-12-29T17:45:39;8.30;99.90
5164;DHT22;2601;50.224;10.126;2022-12-29T17:48:13;8.40;99.90
5164;DHT22;2601;50.224;10.126;2022-12-29T17:50:42;8.30;99.90
5164;DHT22;2601;50.224;10.126;2022-12-29T17:53:21;8.40;99.90
5164;DHT22;2601;50.224;10.126;2022-12-29T17:55:48;8.30;99.90
5164;DHT22;2601;50.224;10.126;2022-12-29T17:58:28;8.30;99.90
5164;DHT22;2601;50.224;10.126;2022-12-29T18:00:56;8.10;99.90
5164;DHT22;2601;50.224;10.126;2022-12-29T18:03:34;8.10;99.90
5164;DHT22;2601;50.224;10.126;2022-12-29T18:06:01;8.20;99.90
5164;DHT22;2601;50.224;10.126;2022-12-29T18:08:29;8.20;99.90
5164;DHT22;2601;50.224;10.126;2022-12-29T18:10:55;8.20;99.90
5164;DHT22;2601;50.224;10.126;2022-12-29T18:13:26;8.10;99.90
5164;DHT22;2601;50.224;10.126;2022-12-29T18:15:53;8.20;99.90
5164;DHT22;2601;50.224;10.126;2022-12-29T18:18:25;8.10;99.90
5164;DHT22;2601;50.224;10.126;2022-12-29T18:20:52;8.10;99.90
5164;DHT22;2601;50.224;10.126;2022-12-29T18:25:54;8.10;99.90
5164;DHT22;2601;50.224;10.126;2022-12-29T18:28:22;8.10;99.90
5164;DHT22;2601;50.224;10.126;2022-12-29T18:30:49;8.10;99.90
5164;DHT22;2601;50.224;10.126;2022-12-29T18:33:17;8.00;99.90
5164;DHT22;2601;50.224;10.126;2022-12-29T18:38:14;8.10;99.90
5164;DHT22;2601;50.224;10.126;2022-12-29T18:40:39;8.10;99.90
5164;DHT22;2601;50.224;10.126;2022-12-29T18:43:05;8.10;99.90
5164;DHT22;2601;50.224;10.126;2022-12-29T18:45:32;8.10;99.90
5164;DHT22;2601;50.224;10.126;2022-12-29T18:47:59;8.10;99.90
5164;DHT22;2601;50.224;10.126;2022-12-29T18:50:25;8.20;99.90
5164;DHT22;2601;50.224;10.126;2022-12-29T18:52:51;8.20;99.90
5164;DHT22;2601;50.224;10.126;2022-12-29T18:55:22;8.20;99.90
5164;DHT22;2601;50.224;10.126;2022-12-29T18:57:49;8.20;99.90
5164;DHT22;2601;50.224;10.126;2022-12-29T19:00:16;8.20;99.90
5164;DHT22;2601;50.224;10.126;2022-12-29T19:02:43;8.20;99.90
5164;DHT22;2601;50.224;10.126;2022-12-29T19:05:24;8.20;99.90
5164;DHT22;2601;50.224;10.126;2022-12-29T19:07:51;8.20;99.90
5164;DHT22;2601;50.224;10.126;2022-12-29T19:10:18;8.20;99.90
5164;DHT22;2601;50.224;10.126;2022-12-29T19:12:44;8.20;99.90
5164;DHT22;2601;50.224;10.126;2022-12-29T19:15:30;8.30;99.90
5164;DHT22;2601;50.224;10.126;2022-12-29T19:17:58;8.20;99.90
5164;DHT22;2601;50.224;10.126;2022-12-29T19:20:29;8.30;99.90
5164;DHT22;2601;50.224;10.126;2022-12-29T19:22:56;8.30;99.90
5164;DHT22;2601;50.224;10.126;2022-12-29T19:25:22;8.30;99.90
5164;DHT22;2601;50.224;10.126;2022-12-29T19:27:49;8.30;99.90
5164;DHT22;2601;50.224;10.126;2022-12-29T19:30:16;8.20;99.90
5164;DHT22;2601;50.224;10.126;2022-12-29T19:32:42;8.20;99.90
5164;DHT22;2601;50.224;10.126;2022-12-29T19:35:09;8.20;99.90
5164;DHT22;2601;50.224;10.126;2022-12-29T19:40:15;8.30;99.90
5164;DHT22;2601;50.224;10.126;2022-12-29T19:42:41;8.30;99.90
5164;DHT22;2601;50.224;10.126;2022-12-29T19:45:07;8.30;99.90
5164;DHT22;2601;50.224;10.126;2022-12-29T19:47:33;8.30;99.90
5164;DHT22;2601;50.224;10.126;2022-12-29T19:50:00;8.30;99.90
5164;DHT22;2601;50.224;10.126;2022-12-29T19:52:27;8.30;99.90
5164;DHT22;2601;50.224;10.126;2022-12-29T19:54:53;8.30;99.90
5164;DHT22;2601;50.224;10.126;2022-12-29T19:57:20;8.30;99.90
5164;DHT22;2601;50.224;10.126;2022-12-29T19:59:46;8.30;99.90
5164;DHT22;2601;50.224;10.126;2022-12-29T20:02:18;8.30;99.90
5164;DHT22;2601;50.224;10.126;2022-12-29T20:04:44;8.20;99.90
5164;DHT22;2601;50.224;10.126;2022-12-29T20:07:10;8.20;99.90
5164;DHT22;2601;50.224;10.126;2022-12-29T20:09:35;8.10;99.90
5164;DHT22;2601;50.224;10.126;2022-12-29T20:12:01;8.00;99.90
5164;DHT22;2601;50.224;10.126;2022-12-29T20:14:27;7.90;99.90
5164;DHT22;2601;50.224;10.126;2022-12-29T20:16:52;8.00;99.90
5164;DHT22;2601;50.224;10.126;2022-12-29T20:19:18;8.00;99.90
5164;DHT22;2601;50.224;10.126;2022-12-29T20:21:43;7.90;99.90
5164;DHT22;2601;50.224;10.126;2022-12-29T20:24:09;7.90;99.90
5164;DHT22;2601;50.224;10.126;2022-12-29T20:26:35;7.80;99.90
5164;DHT22;2601;50.224;10.126;2022-12-29T20:29:00;7.80;99.90
5164;DHT22;2601;50.224;10.126;2022-12-29T20:31:33;7.70;99.90
5164;DHT22;2601;50.224;10.126;2022-12-29T20:34:01;7.90;99.90
5164;DHT22;2601;50.224;10.126;2022-12-29T20:36:29;7.90;99.90
5164;DHT22;2601;50.224;10.126;2022-12-29T20:38:57;7.80;99.90
5164;DHT22;2601;50.224;10.126;2022-12-29T20:41:24;7.90;99.90
